Time;durP1;ratioP1;P1;durP2;ratioP2;P2;SDS_P1;SDS_P2;PMS_P1;PMS_P2;Temp;Humidity;BMP_temperature;BMP_pressure;BME280_temperature;BME280_humidity;BME280_pressure;Samples;Min_cycle;Max_cycle;Signal;HPM_P1;HPM_P2
2022/09/14 00:04:17;;;;;;;7.10;2.15;;;;;;;11.02;100.00;100636.66;13013911;22;20039;-87
2022/09/14 00:09:20;;;;;;;6.75;2.17;;;;;;;12.35;100.00;100856.59;12986940;22;20444;-87
2022/09/14 00:14:21;;;;;;;5.22;1.70;;;;;;;10.73;100.00;100582.97;12999754;22;20003;-88
2022/09/14 00:19:25;;;;;;;8.85;2.45;;;;;;;10.57;100.00;100563.59;12986425;22;20007;-89
2022/09/14 00:24:29;;;;;;;5.28;2.03;;;;;;;12.54;100.00;100852.28;13018058;22;20448;-88
2022/09/14 00:29:32;;;;;;;7.60;1.95;;;;;;;11.37;100.00;100673.00;12960537;22;20329;-89
2022/09/14 00:39:48;;;;;;;6.72;1.92;;;;;;;12.45;100.00;100832.63;13090627;22;20029;-89
2022/09/14 00:45:25;;;;;;;5.03;2.20;;;;;;;12.46;100.00;100820.50;12967183;22;20022;-88
2022/09/14 00:50:27;;;;;;;13.48;2.83;;;;;;;11.33;100.00;100634.13;13057901;22;20266;-88
2022/09/14 00:55:28;;;;;;;9.55;2.22;;;;;;;11.44;100.00;100646.88;13111433;22;20010;-87
2022/09/14 01:00:29;;;;;;;4.68;1.83;;;;;;;11.63;100.00;100639.00;13061339;22;20010;-89
2022/09/14 01:05:41;;;;;;;8.50;2.08;;;;;;;12.61;100.00;100818.88;13110785;22;20107;-88
2022/09/14 01:11:03;;;;;;;7.28;2.30;;;;;;;12.11;100.00;100710.72;13025917;22;20007;-87
2022/09/14 01:16:19;;;;;;;3.10;1.90;;;;;;;12.40;100.00;100773.78;13078919;22;20424;-87
2022/09/14 01:21:25;;;;;;;5.65;1.85;;;;;;;10.02;100.00;100427.97;13121652;22;20006;-87
2022/09/14 01:26:35;;;;;;;6.70;2.20;;;;;;;11.72;100.00;100724.84;12986131;22;20025;-87
2022/09/14 01:31:54;;;;;;;7.85;1.90;;;;;;;10.46;100.00;100517.81;13049133;22;20018;-87
2022/09/14 01:36:58;;;;;;;5.75;2.60;;;;;;;11.15;100.00;100662.09;12980499;22;20060;-87
2022/09/14 01:42:00;;;;;;;8.38;2.60;;;;;;;10.64;100.00;100577.94;13057720;22;20002;-87
2022/09/14 01:47:48;;;;;;;10.40;3.10;;;;;;;11.94;100.00;100754.22;13106298;22;20075;-87
2022/09/14 01:52:52;;;;;;;8.00;3.08;;;;;;;10.85;100.00;100609.25;13103695;22;20021;-88
2022/09/14 01:58:09;;;;;;;8.50;3.90;;;;;;;10.87;100.00;100611.72;13029509;22;20451;-88
2022/09/14 02:03:13;;;;;;;10.32;3.70;;;;;;;10.69;100.00;100547.72;13025850;22;20003;-87
2022/09/14 02:08:13;;;;;;;8.18;3.97;;;;;;;11.36;100.00;100669.44;13082371;22;20010;-87
2022/09/14 02:13:14;;;;;;;10.90;3.60;;;;;;;10.60;100.00;100523.69;13062936;22;20018;-87
2022/09/14 02:18:15;;;;;;;9.13;3.80;;;;;;;10.66;100.00;100525.38;13094697;22;19998;-88
2022/09/14 02:23:16;;;;;;;6.88;3.13;;;;;;;11.05;100.00;100583.78;13097980;22;20007;-88
2022/09/14 02:28:16;;;;;;;9.85;3.22;;;;;;;10.90;100.00;100567.97;13054896;22;20074;-88
2022/09/14 02:33:23;;;;;;;8.75;4.07;;;;;;;11.65;100.00;100700.22;13053211;22;20025;-87
2022/09/14 02:38:36;;;;;;;10.65;3.80;;;;;;;10.47;100.00;100522.22;13095822;22;20025;-87
2022/09/14 02:43:54;;;;;;;7.50;3.85;;;;;;;10.29;100.00;100452.72;13052187;22;20356;-88
2022/09/14 02:49:03;;;;;;;11.20;4.53;;;;;;;11.13;100.00;100604.50;13041485;22;20451;-87
2022/09/14 02:54:17;;;;;;;12.68;5.35;;;;;;;10.64;100.00;100511.88;13067778;22;20011;-87
2022/09/14 02:59:18;;;;;;;15.50;5.43;;;;;;;10.59;100.00;100511.84;13042980;22;20010;-87
2022/09/14 03:04:22;;;;;;;12.02;4.53;;;;;;;10.95;100.00;100531.38;12978794;22;20128;-90
2022/09/14 03:09:23;;;;;;;13.50;4.28;;;;;;;11.12;100.00;100517.44;12982857;22;20010;-88
2022/09/14 03:14:27;;;;;;;9.35;3.97;;;;;;;11.56;100.00;100599.00;12989342;22;20014;-87
2022/09/14 03:19:27;;;;;;;16.90;3.80;;;;;;;11.20;100.00;100521.59;13028141;22;20010;-87
2022/09/14 03:24:31;;;;;;;12.35;3.00;;;;;;;11.34;100.00;100525.53;13042148;22;20010;-88
2022/09/14 03:29:35;;;;;;;12.82;3.78;;;;;;;11.02;100.00;100485.16;13029315;22;20057;-87
2022/09/14 03:34:36;;;;;;;10.23;3.20;;;;;;;11.86;100.00;100603.81;13029836;22;20027;-87
2022/09/14 03:39:36;;;;;;;10.05;2.78;;;;;;;11.24;100.00;100459.34;13015451;22;20472;-87
2022/09/14 03:44:37;;;;;;;10.90;3.10;;;;;;;12.08;100.00;100614.69;13041871;22;20313;-87
2022/09/14 03:49:38;;;;;;;13.40;3.72;;;;;;;10.91;100.00;100425.59;13086718;22;20312;-87
2022/09/14 03:54:38;;;;;;;10.15;3.28;;;;;;;12.34;100.00;100623.03;13104985;22;20021;-87
2022/09/14 03:59:39;;;;;;;11.32;3.08;;;;;;;11.13;100.00;100402.56;13051038;22;20006;-87
2022/09/14 04:04:42;;;;;;;13.98;3.13;;;;;;;11.02;100.00;100397.00;13064072;22;20021;-86
2022/09/14 04:09:43;;;;;;;7.30;4.45;;;;;;;11.54;100.00;100441.28;13091188;22;19999;-86
2022/09/14 04:14:44;;;;;;;11.35;2.70;;;;;;;13.04;100.00;100676.75;13104200;22;20025;-86
2022/09/14 04:19:44;;;;;;;9.93;3.45;;;;;;;11.49;100.00;100440.16;13091483;22;20081;-86
2022/09/14 04:24:46;;;;;;;7.35;3.30;;;;;;;12.30;100.00;100551.81;13093645;22;20068;-87
2022/09/14 04:29:49;;;;;;;8.35;3.33;;;;;;;12.38;100.00;100577.22;13097096;22;20014;-87
2022/09/14 04:34:50;;;;;;;14.80;3.13;;;;;;;12.26;100.00;100570.03;13083538;22;20002;-86
2022/09/14 04:39:51;;;;;;;6.85;3.17;;;;;;;12.52;100.00;100594.91;13086971;22;20033;-90
2022/09/14 04:44:54;;;;;;;5.78;2.95;;;;;;;11.62;100.00;100460.88;13079378;22;20019;-90
2022/09/14 04:49:54;;;;;;;9.63;3.65;;;;;;;12.99;100.00;100665.66;13103575;22;20483;-90
2022/09/14 04:54:55;;;;;;;8.18;3.13;;;;;;;11.86;100.00;100480.50;13102942;22;20006;-90
2022/09/14 04:59:56;;;;;;;9.82;3.40;;;;;;;12.20;100.00;100551.81;13059437;22;20077;-87
2022/09/14 05:04:57;;;;;;;5.38;3.00;;;;;;;11.88;100.00;100481.09;13093579;22;20072;-87
2022/09/14 05:09:59;;;;;;;7.18;3.03;;;;;;;11.21;100.00;100371.72;13101080;22;20002;-90
2022/09/14 05:15:00;;;;;;;8.98;3.33;;;;;;;11.85;100.00;100469.75;13070370;22;20006;-90
2022/09/14 05:20:03;;;;;;;9.55;3.55;;;;;;;12.26;100.00;100552.66;13113492;22;20055;-90
2022/09/14 05:25:04;;;;;;;12.60;4.10;;;;;;;11.55;100.00;100423.63;13063217;22;20067;-90
2022/09/14 05:30:06;;;;;;;10.82;4.43;;;;;;;12.83;100.00;100600.47;13053399;22;20011;-91
2022/09/14 05:35:07;;;;;;;12.50;6.00;;;;;;;12.04;100.00;100461.81;13062410;22;20442;-87
2022/09/14 05:40:11;;;;;;;13.93;5.45;;;;;;;12.71;100.00;100534.44;13054053;22;20002;-87
2022/09/14 05:45:12;;;;;;;9.13;5.38;;;;;;;12.05;100.00;100446.91;13024553;22;20038;-88
2022/09/14 05:50:13;;;;;;;10.65;4.40;;;;;;;11.99;100.00;100432.28;13050514;22;20083;-87
2022/09/14 05:55:14;;;;;;;11.32;5.93;;;;;;;12.32;100.00;100447.47;13011784;22;20077;-88
2022/09/14 06:06:13;;;;;;;11.93;4.38;;;;;;;12.52;100.00;100459.59;12673876;22;20376;-90
2022/09/14 06:11:15;;;;;;;7.13;3.85;;;;;;;11.84;100.00;100317.22;12899548;22;20437;-87
2022/09/14 06:16:18;;;;;;;11.75;4.30;;;;;;;12.51;100.00;100441.41;12813338;22;20018;-87
2022/09/14 06:21:19;;;;;;;8.73;3.22;;;;;;;12.19;100.00;100348.66;12850407;22;20023;-87
2022/09/14 06:26:20;;;;;;;7.82;3.35;;;;;;;12.41;100.00;100378.72;12852501;22;20028;-91
2022/09/14 06:31:24;;;;;;;8.35;3.17;;;;;;;13.46;100.00;100514.44;12878835;22;20031;-88
2022/09/14 06:36:27;;;;;;;6.47;3.58;;;;;;;12.97;100.00;100402.59;12991364;22;20007;-87
2022/09/14 06:41:31;;;;;;;10.02;3.20;;;;;;;14.15;100.00;100576.34;13008482;22;20487;-87
2022/09/14 06:46:39;;;;;;;8.57;3.05;;;;;;;13.92;100.00;100495.63;13099097;22;20042;-88
2022/09/14 06:51:42;;;;;;;10.80;2.70;;;;;;;13.65;100.00;100417.81;13064734;22;20034;-88
2022/09/14 06:56:45;;;;;;;9.80;3.85;;;;;;;13.99;100.00;100417.00;13066453;22;20018;-88
2022/09/14 07:01:48;;;;;;;6.60;2.22;;;;;;;14.92;100.00;100523.13;13012143;22;20473;-90
2022/09/14 07:06:49;;;;;;;6.43;1.60;;;;;;;15.17;100.00;100557.28;13025436;22;20018;-87
2022/09/14 07:11:53;;;;;;;8.68;1.92;;;;;;;14.22;100.00;100354.53;13032281;22;20003;-90
2022/09/14 07:16:54;;;;;;;8.90;2.65;;;;;;;15.44;100.00;100543.69;13086103;22;20022;-88
2022/09/14 07:21:59;;;;;;;3.17;1.40;;;;;;;15.12;100.00;100484.13;12947677;22;20010;-90
2022/09/14 07:27:02;;;;;;;5.43;1.20;;;;;;;14.78;100.00;100403.84;12995995;22;20017;-87
2022/09/14 07:32:03;;;;;;;6.63;1.80;;;;;;;15.22;100.00;100436.03;13063184;22;20081;-88
2022/09/14 07:37:03;;;;;;;4.60;1.00;;;;;;;15.79;100.00;100513.84;12923983;22;20006;-89
2022/09/14 07:42:07;;;;;;;4.20;1.02;;;;;;;15.70;100.00;100479.53;13048308;22;20008;-88
2022/09/14 07:47:10;;;;;;;7.93;1.58;;;;;;;16.00;100.00;100491.34;13011620;22;20053;-87
2022/09/14 07:52:11;;;;;;;9.77;1.05;;;;;;;15.37;100.00;100374.00;12991163;22;20032;-88
2022/09/14 07:57:12;;;;;;;6.65;1.80;;;;;;;16.64;100.00;100542.59;13035326;22;20071;-88
2022/09/14 08:02:17;;;;;;;3.63;1.17;;;;;;;17.35;100.00;100642.63;13045869;22;20087;-88
2022/09/14 08:07:18;;;;;;;3.90;1.00;;;;;;;15.85;100.00;100390.50;12965049;22;20080;-88
2022/09/14 08:12:19;;;;;;;8.07;1.20;;;;;;;15.68;100.00;100320.81;13065361;22;19995;-88
2022/09/14 08:17:21;;;;;;;3.58;0.82;;;;;;;16.69;100.00;100452.72;13008296;22;20011;-89
2022/09/14 08:22:21;;;;;;;6.25;1.00;;;;;;;16.60;100.00;100466.50;12924782;22;20006;-88
2022/09/14 08:27:22;;;;;;;4.00;0.80;;;;;;;17.04;100.00;100515.22;13063209;22;20018;-86
2022/09/14 08:32:23;;;;;;;5.18;1.20;;;;;;;16.32;100.00;100393.38;13057794;22;19998;-89
2022/09/14 08:37:35;;;;;;;7.60;1.10;;;;;;;16.06;100.00;100315.22;13051814;22;20006;-89
2022/09/14 08:42:35;;;;;;;4.90;0.90;;;;;;;17.49;100.00;100515.47;12991778;22;20002;-88
2022/09/14 08:47:40;;;;;;;5.75;1.48;;;;;;;16.97;100.00;100398.03;12965666;22;20022;-89
2022/09/14 08:52:48;;;;;;;5.65;1.10;;;;;;;18.03;100.00;100567.84;13050659;22;20422;-87
2022/09/14 08:58:02;;;;;;;5.45;1.30;;;;;;;17.90;100.00;100528.56;13100228;22;20018;-87
2022/09/14 09:03:12;;;;;;;9.30;1.08;;;;;;;17.83;100.00;100530.94;13038221;22;20025;-87
2022/09/14 09:08:41;;;;;;;11.10;1.60;;;;;;;18.07;100.00;100568.88;13047092;22;20014;-88
2022/09/14 09:13:41;;;;;;;7.78;1.00;;;;;;;17.75;100.00;100437.78;13049712;22;20501;-88
2022/09/14 09:18:46;;;;;;;6.22;1.25;;;;;;;17.88;100.00;100430.56;12960116;22;19998;-87
2022/09/14 09:23:47;;;;;;;4.93;0.82;;;;;;;17.79;100.00;100426.84;13057971;22;20007;-89
2022/09/14 09:28:48;;;;;;;9.25;1.13;;;;;;;18.51;100.00;100529.06;13045451;22;20091;-87
2022/09/14 09:33:50;;;;;;;6.47;1.52;;;;;;;18.93;100.00;100512.16;13079616;22;19999;-87
2022/09/14 09:38:50;;;;;;;5.03;0.80;;;;;;;19.07;100.00;100437.56;13101035;22;20443;-85
2022/09/14 09:44:10;;;;;;;6.68;1.20;;;;;;;20.03;100.00;100442.53;13132194;22;20009;-84
2022/09/14 09:49:22;;;;;;;4.93;0.88;;;;;;;20.93;97.42;100452.94;13060976;22;20018;-86
2022/09/14 09:54:25;;;;;;;5.45;0.90;;;;;;;21.04;88.81;100437.41;13109257;22;20010;-85
2022/09/14 09:59:37;;;;;;;4.75;0.80;;;;;;;21.00;91.91;100472.84;13083440;22;20320;-85
2022/09/14 10:04:37;;;;;;;2.97;0.73;;;;;;;19.89;91.72;100342.97;13107205;22;20011;-85
2022/09/14 10:09:38;;;;;;;3.70;0.65;;;;;;;20.10;90.60;100398.16;13108194;22;20003;-86
2022/09/14 10:14:39;;;;;;;7.50;0.70;;;;;;;19.96;88.33;100407.53;13107201;22;20002;-86
2022/09/14 10:19:39;;;;;;;4.05;1.10;;;;;;;19.60;89.75;100401.44;12980187;22;20082;-86
2022/09/14 10:24:40;;;;;;;6.70;0.90;;;;;;;19.42;89.08;100328.81;13106537;22;20017;-86
2022/09/14 10:29:41;;;;;;;7.90;1.55;;;;;;;20.53;89.00;100456.00;13106619;22;20002;-86
2022/09/14 10:34:41;;;;;;;5.05;1.25;;;;;;;20.84;88.88;100427.00;13108081;22;20010;-85
2022/09/14 10:39:47;;;;;;;7.47;1.15;;;;;;;21.69;85.03;100507.31;13108280;22;20014;-84
2022/09/14 10:45:06;;;;;;;5.95;1.27;;;;;;;22.05;84.99;100503.13;13080281;22;20026;-86
2022/09/14 10:50:29;;;;;;;4.53;0.82;;;;;;;21.38;85.98;100348.00;13132319;22;20382;-85
2022/09/14 10:55:50;;;;;;;5.72;0.90;;;;;;;22.06;82.45;100493.56;13135591;22;20063;-85
2022/09/14 11:01:30;;;;;;;5.72;0.98;;;;;;;20.93;81.27;100357.81;13131991;22;20006;-86
2022/09/14 11:07:01;;;;;;;7.07;1.27;;;;;;;21.21;83.71;100486.09;13085199;22;20022;-85
2022/09/14 11:12:12;;;;;;;5.30;0.88;;;;;;;20.81;85.28;100402.47;13132578;22;20391;-85
2022/09/14 11:17:18;;;;;;;4.65;1.25;;;;;;;20.99;85.50;100489.97;13131701;22;20026;-86
2022/09/14 11:22:29;;;;;;;4.88;0.80;;;;;;;19.80;86.48;100378.44;13133150;22;20002;-84
2022/09/14 11:27:45;;;;;;;4.90;0.82;;;;;;;19.95;87.43;100417.06;13107308;22;20010;-84
2022/09/14 11:32:54;;;;;;;7.77;1.53;;;;;;;19.42;89.20;100311.25;13108067;22;20030;-84
2022/09/14 11:38:05;;;;;;;6.65;0.90;;;;;;;20.10;87.86;100387.00;13106072;22;20059;-86
2022/09/14 11:43:12;;;;;;;3.10;0.90;;;;;;;20.76;87.21;100453.84;13106146;22;20005;-86
2022/09/14 11:48:39;;;;;;;5.30;1.05;;;;;;;21.63;84.38;100475.06;13104713;22;20049;-86
2022/09/14 11:53:41;;;;;;;5.63;1.50;;;;;;;21.52;79.40;100278.56;13128562;22;20010;-86
2022/09/14 11:58:41;;;;;;;3.63;1.95;;;;;;;22.72;79.16;100361.75;13104356;22;20002;-86
2022/09/14 12:03:49;;;;;;;7.55;1.50;;;;;;;22.45;75.76;100295.09;13103824;22;20007;-86
2022/09/14 12:08:50;;;;;;;7.78;1.60;;;;;;;22.94;75.23;100439.09;13090236;22;20026;-86
2022/09/14 12:14:22;;;;;;;5.93;1.52;;;;;;;23.10;75.42;100377.47;13104887;22;20301;-86
2022/09/14 12:19:25;;;;;;;5.70;1.27;;;;;;;24.08;71.98;100406.56;13130834;22;20030;-85
2022/09/14 12:24:25;;;;;;;7.75;1.08;;;;;;;24.12;69.68;100346.44;13079932;22;19999;-91
2022/09/14 12:29:31;;;;;;;7.30;1.05;;;;;;;23.60;71.73;100403.50;13091935;22;20045;-88
2022/09/14 12:34:32;;;;;;;32.30;2.83;;;;;;;21.99;75.67;100345.53;13051074;22;20003;-85
2022/09/14 12:39:34;;;;;;;5.57;1.05;;;;;;;22.19;75.06;100385.91;13081472;22;20041;-86
2022/09/14 12:44:35;;;;;;;5.47;1.15;;;;;;;23.60;72.91;100458.88;13108349;22;20026;-85
2022/09/14 12:49:36;;;;;;;3.42;1.10;;;;;;;23.26;71.89;100362.72;13109919;22;20228;-85
2022/09/14 12:54:54;;;;;;;5.50;1.08;;;;;;;24.87;69.85;100332.75;13107924;22;20072;-86
2022/09/14 13:00:08;;;;;;;6.95;1.13;;;;;;;25.87;65.88;100303.16;13110509;22;20339;-86
2022/09/14 13:05:18;;;;;;;4.03;0.88;;;;;;;24.92;63.02;100231.06;13110084;22;20152;-86
2022/09/14 13:10:36;;;;;;;11.10;1.35;;;;;;;23.83;65.89;100319.50;13109205;22;20011;-85
2022/09/14 13:15:52;;;;;;;10.50;1.08;;;;;;;23.26;69.71;100390.81;13108279;22;19999;-85
2022/09/14 13:20:57;;;;;;;6.78;0.88;;;;;;;22.69;73.63;100387.69;13108640;22;20002;-86
2022/09/14 13:25:57;;;;;;;7.10;1.25;;;;;;;21.93;72.04;100328.13;13109351;22;20015;-85
2022/09/14 13:30:59;;;;;;;5.68;1.38;;;;;;;21.49;74.05;100347.28;13108203;22;20444;-83
2022/09/14 13:36:01;;;;;;;6.03;1.75;;;;;;;21.85;73.93;100437.47;13107613;22;20011;-85
2022/09/14 13:41:07;;;;;;;7.28;1.10;;;;;;;20.19;77.10;100245.25;13081385;22;20319;-85
2022/09/14 13:46:07;;;;;;;4.15;1.67;;;;;;;20.30;75.32;100282.88;13132803;22;20097;-84
2022/09/14 13:51:08;;;;;;;3.15;1.05;;;;;;;20.43;79.48;100366.88;12976825;22;20022;-86
2022/09/14 13:56:25;;;;;;;5.63;1.95;;;;;;;20.18;79.08;100361.00;13106456;22;20002;-86
2022/09/14 14:01:26;;;;;;;6.07;1.58;;;;;;;19.47;79.03;100300.75;13108754;22;20052;-85
2022/09/14 14:06:29;;;;;;;5.53;1.10;;;;;;;18.94;78.22;100241.28;13080811;22;20025;-86
2022/09/14 14:11:36;;;;;;;4.75;1.20;;;;;;;20.10;79.58;100417.72;13081935;22;19998;-85
2022/09/14 14:16:36;;;;;;;4.88;1.05;;;;;;;19.83;79.50;100344.28;13132878;22;20052;-86
2022/09/14 14:21:37;;;;;;;5.03;1.20;;;;;;;19.73;78.77;100235.69;13133051;22;20002;-85
2022/09/14 14:26:37;;;;;;;4.90;1.15;;;;;;;21.18;74.77;100358.81;13107182;22;20041;-86
2022/09/14 14:31:38;;;;;;;2.45;0.70;;;;;;;21.11;75.96;100294.16;12975841;22;20003;-87
2022/09/14 14:36:38;;;;;;;3.42;1.02;;;;;;;22.33;72.13;100291.09;13065778;22;20025;-86
2022/09/14 14:41:39;;;;;;;6.22;1.30;;;;;;;22.97;69.49;100291.59;13106642;22;20033;-84
2022/09/14 14:46:41;;;;;;;4.40;1.27;;;;;;;22.25;70.55;100237.94;13066817;22;20406;-83
2022/09/14 14:51:41;;;;;;;9.13;1.13;;;;;;;22.79;69.15;100321.06;13067986;22;20003;-83
2022/09/14 14:56:42;;;;;;;4.25;1.20;;;;;;;21.71;68.14;100138.00;13042675;22;20045;-84
2022/09/14 15:01:43;;;;;;;6.30;1.60;;;;;;;21.88;73.08;100265.84;13040797;22;20013;-85
2022/09/14 15:06:47;;;;;;;7.80;1.52;;;;;;;21.80;71.26;100250.78;13015290;22;20026;-86
2022/09/14 15:11:48;;;;;;;12.18;1.88;;;;;;;20.41;74.38;100128.75;13003276;22;20090;-90
2022/09/14 15:16:48;;;;;;;8.65;2.13;;;;;;;21.08;74.70;100304.03;13003371;22;20337;-86
2022/09/14 15:21:49;;;;;;;4.80;0.90;;;;;;;19.63;77.13;100113.16;13051490;22;20021;-85
2022/09/14 15:26:49;;;;;;;5.97;0.90;;;;;;;21.03;75.20;100270.66;13040386;22;20015;-86
2022/09/14 15:32:13;;;;;;;5.13;0.73;;;;;;;20.16;76.81;100153.72;12882082;22;20042;-92
2022/09/14 15:37:14;;;;;;;5.32;1.00;;;;;;;20.84;78.60;100284.31;13001245;22;20082;-88
2022/09/14 15:42:18;;;;;;;5.55;0.80;;;;;;;19.96;76.73;100161.66;13038384;22;20088;-87
2022/09/14 15:47:19;;;;;;;3.78;1.02;;;;;;;20.22;78.06;100255.78;12857109;22;20045;-87
2022/09/14 15:52:19;;;;;;;4.78;1.00;;;;;;;19.74;77.31;100206.59;12876954;22;20009;-88
2022/09/14 15:57:20;;;;;;;4.32;1.02;;;;;;;19.64;77.94;100257.22;12864518;22;19997;-89
2022/09/14 16:02:20;;;;;;;4.43;1.33;;;;;;;19.92;79.97;100353.47;12947348;22;20363;-88
2022/09/14 16:07:22;;;;;;;8.77;1.30;;;;;;;18.95;79.79;100216.97;12902063;22;20418;-88
2022/09/14 16:12:23;;;;;;;8.57;1.23;;;;;;;18.24;80.20;100131.56;12901594;22;20092;-88
2022/09/14 16:17:23;;;;;;;3.45;0.57;;;;;;;18.82;81.82;100271.78;12877864;22;20028;-87
2022/09/14 16:22:24;;;;;;;5.28;0.85;;;;;;;18.82;81.89;100294.09;12861567;22;20379;-88
2022/09/14 16:27:24;;;;;;;3.55;0.70;;;;;;;17.54;82.55;100110.97;12866786;22;20028;-88
2022/09/14 16:32:25;;;;;;;8.02;1.15;;;;;;;18.53;84.93;100291.81;12904732;22;20334;-88
2022/09/14 16:37:25;;;;;;;3.13;0.80;;;;;;;17.99;85.88;100227.03;12879771;22;20427;-85
2022/09/14 16:42:26;;;;;;;3.30;1.35;;;;;;;18.41;86.33;100291.63;12867978;22;20006;-89
2022/09/14 16:47:26;;;;;;;2.45;0.65;;;;;;;18.19;86.53;100321.19;12904897;22;20031;-86
2022/09/14 16:52:28;;;;;;;6.20;1.70;;;;;;;17.38;87.20;100174.53;12905914;22;20413;-88
2022/09/14 16:57:29;;;;;;;3.05;0.70;;;;;;;17.62;87.46;100268.03;12880207;22;20001;-86
2022/09/14 17:02:29;;;;;;;4.80;0.75;;;;;;;17.64;88.75;100319.47;12903839;22;20005;-88
2022/09/14 17:07:30;;;;;;;4.63;0.88;;;;;;;16.92;90.19;100245.19;12876809;22;20382;-88
2022/09/14 17:12:30;;;;;;;3.67;0.85;;;;;;;16.27;91.54;100141.53;12877924;22;20025;-88
2022/09/14 17:17:31;;;;;;;4.75;0.80;;;;;;;16.12;94.54;100189.03;13003916;22;20006;-89
2022/09/14 17:22:32;;;;;;;7.93;1.00;;;;;;;15.46;96.70;100105.06;12719281;22;20387;-89
2022/09/14 17:27:32;;;;;;;8.10;1.10;;;;;;;16.69;99.34;100331.25;13030252;22;20018;-88
2022/09/14 17:32:33;;;;;;;3.22;0.90;;;;;;;16.11;100.00;100254.06;12880838;22;20009;-88
2022/09/14 17:37:33;;;;;;;5.85;0.82;;;;;;;15.66;100.00;100212.09;12876880;22;20043;-87
2022/09/14 17:42:34;;;;;;;4.80;1.30;;;;;;;14.79;100.00;100069.38;12905264;22;20005;-88
2022/09/14 17:47:34;;;;;;;4.35;0.80;;;;;;;15.42;100.00;100213.06;13062989;22;20030;-87
2022/09/14 17:52:35;;;;;;;5.57;1.10;;;;;;;15.84;100.00;100283.41;13036351;22;20077;-88
2022/09/14 17:57:36;;;;;;;1.83;0.52;;;;;;;16.18;100.00;100354.44;13010144;22;20436;-87
2022/09/14 18:02:36;;;;;;;3.83;0.70;;;;;;;15.20;100.00;100224.78;13034389;22;20045;-88
2022/09/14 18:07:37;;;;;;;2.50;0.80;;;;;;;15.68;100.00;100345.81;13009180;22;20018;-85
2022/09/14 18:12:38;;;;;;;5.15;1.30;;;;;;;15.39;100.00;100326.56;13021379;22;20114;-85
2022/09/14 18:17:43;;;;;;;4.82;1.02;;;;;;;15.34;100.00;100330.22;13032490;22;20006;-87
2022/09/14 18:22:43;;;;;;;3.78;1.08;;;;;;;15.32;100.00;100368.53;13029828;22;20368;-86
2022/09/14 18:27:44;;;;;;;4.93;1.10;;;;;;;14.65;100.00;100326.97;13031395;22;20019;-87
2022/09/14 18:32:45;;;;;;;4.07;1.08;;;;;;;15.23;100.00;100445.19;13043937;22;20021;-87
2022/09/14 18:37:46;;;;;;;5.75;0.90;;;;;;;13.27;100.00;100180.50;13043726;22;20013;-88
2022/09/14 18:42:47;;;;;;;7.95;1.23;;;;;;;14.33;100.00;100383.78;12999488;22;20031;-87
2022/09/14 18:47:48;;;;;;;3.58;0.80;;;;;;;13.87;100.00;100354.56;13081800;22;20019;-86
2022/09/14 18:52:49;;;;;;;6.65;1.15;;;;;;;13.37;100.00;100294.91;13093385;22;20034;-85
2022/09/14 18:57:50;;;;;;;4.32;1.13;;;;;;;13.12;100.00;100267.13;13062084;22;20301;-88
2022/09/14 19:02:52;;;;;;;7.40;1.17;;;;;;;13.31;100.00;100352.16;13127674;22;19994;-88
2022/09/14 19:07:52;;;;;;;5.10;1.15;;;;;;;12.21;100.00;100186.41;13022731;22;20038;-87
2022/09/14 19:12:53;;;;;;;5.75;1.48;;;;;;;12.23;100.00;100195.22;13073956;22;20370;-87
2022/09/14 19:17:53;;;;;;;6.38;1.13;;;;;;;13.00;100.00;100351.47;13059047;22;20505;-87
2022/09/14 19:22:57;;;;;;;4.60;1.30;;;;;;;12.46;100.00;100251.75;13050202;22;20010;-88
2022/09/14 19:28:03;;;;;;;4.22;1.75;;;;;;;11.79;100.00;100159.22;13059762;22;20019;-87
2022/09/14 19:33:03;;;;;;;9.93;2.23;;;;;;;13.60;100.00;100453.78;13028606;22;20041;-87
2022/09/14 19:38:04;;;;;;;3.78;1.13;;;;;;;12.31;100.00;100227.75;13022505;22;20010;-88
2022/09/14 19:43:05;;;;;;;5.35;1.45;;;;;;;13.63;100.00;100445.75;13051034;22;20062;-88
2022/09/14 19:48:05;;;;;;;6.95;1.45;;;;;;;13.08;100.00;100371.06;13053751;22;20018;-88
2022/09/14 19:53:06;;;;;;;6.65;1.60;;;;;;;12.76;100.00;100329.22;13059922;22;20002;-88
2022/09/14 19:58:10;;;;;;;4.43;1.40;;;;;;;12.43;100.00;100309.44;13033181;22;19999;-88
2022/09/14 20:03:10;;;;;;;7.10;1.50;;;;;;;11.98;100.00;100209.13;13068126;22;20506;-88
2022/09/14 20:08:11;;;;;;;5.43;1.40;;;;;;;13.09;100.00;100432.69;13010261;22;20049;-88
2022/09/14 20:13:14;;;;;;;9.40;2.53;;;;;;;11.91;100.00;100243.31;13036034;22;20416;-89
2022/09/14 20:18:15;;;;;;;7.13;2.47;;;;;;;12.16;100.00;100305.09;13057679;22;20006;-86
2022/09/14 20:23:15;;;;;;;7.18;2.08;;;;;;;11.89;100.00;100264.84;13070502;22;20432;-84
2022/09/14 20:28:16;;;;;;;6.50;1.70;;;;;;;11.89;100.00;100264.84;13082482;22;20018;-86
2022/09/14 20:33:16;;;;;;;9.55;2.78;;;;;;;12.32;100.00;100325.22;13096802;22;20002;-85
2022/09/14 20:38:17;;;;;;;9.25;1.83;;;;;;;12.14;100.00;100312.81;13061265;22;20017;-85
2022/09/14 20:43:17;;;;;;;5.47;2.03;;;;;;;12.69;100.00;100399.41;13103953;22;19995;-85
2022/09/14 20:48:18;;;;;;;5.85;1.42;;;;;;;12.06;100.00;100294.06;13082559;22;20026;-91
2022/09/14 20:53:21;;;;;;;6.30;1.52;;;;;;;12.03;100.00;100256.84;13110443;22;20358;-91
2022/09/14 20:58:21;;;;;;;4.93;1.40;;;;;;;12.41;100.00;100342.03;13110587;22;19998;-91
2022/09/14 21:03:22;;;;;;;4.78;1.48;;;;;;;12.06;100.00;100305.09;13083582;22;20003;-85
2022/09/14 21:08:22;;;;;;;6.38;1.48;;;;;;;11.73;100.00;100268.69;13106039;22;20322;-85
2022/09/14 21:13:23;;;;;;;5.03;1.33;;;;;;;12.03;100.00;100344.25;13108622;22;20446;-84
2022/09/14 21:18:24;;;;;;;6.07;1.35;;;;;;;12.49;100.00;100407.72;13107474;22;19998;-85
2022/09/14 21:23:24;;;;;;;4.75;1.52;;;;;;;11.38;100.00;100251.03;13081117;22;20022;-85
2022/09/14 21:28:25;;;;;;;3.97;1.42;;;;;;;11.61;100.00;100303.97;13105897;22;20045;-84
2022/09/14 21:33:25;;;;;;;5.07;1.50;;;;;;;11.56;100.00;100290.22;13090854;22;20428;-86
2022/09/14 21:38:26;;;;;;;4.82;1.15;;;;;;;11.58;100.00;100310.06;13105032;22;20077;-86
2022/09/14 21:43:27;;;;;;;4.25;1.00;;;;;;;11.02;100.00;100212.47;13089341;22;20477;-87
2022/09/14 21:48:27;;;;;;;2.38;1.20;;;;;;;11.02;100.00;100226.22;12978501;22;20022;-86
2022/09/14 21:53:28;;;;;;;8.80;1.75;;;;;;;11.27;100.00;100222.66;13091685;22;20013;-85
2022/09/14 21:58:28;;;;;;;2.17;1.00;;;;;;;12.13;100.00;100388.41;13131229;22;20002;-85
2022/09/14 22:03:29;;;;;;;5.30;1.20;;;;;;;11.82;100.00;100333.22;12976378;22;20077;-86
2022/09/14 22:08:30;;;;;;;4.00;1.45;;;;;;;11.51;100.00;100324.94;13130218;22;20018;-85
2022/09/14 22:13:30;;;;;;;5.65;1.15;;;;;;;11.24;100.00;100256.25;13056699;22;20024;-85
2022/09/14 22:18:31;;;;;;;3.72;1.27;;;;;;;11.59;100.00;100311.72;13106223;22;19999;-86
2022/09/14 22:23:32;;;;;;;5.93;1.80;;;;;;;11.75;100.00;100340.94;13105283;22;20026;-84
2022/09/14 22:28:33;;;;;;;5.47;1.58;;;;;;;11.47;100.00;100301.78;13105066;22;20444;-86
2022/09/14 22:33:33;;;;;;;5.55;1.35;;;;;;;11.35;100.00;100306.72;13108390;22;20290;-86
2022/09/14 22:38:34;;;;;;;5.88;1.55;;;;;;;11.18;100.00;100278.56;13107750;22;20002;-86
2022/09/14 22:43:34;;;;;;;3.35;1.25;;;;;;;11.37;100.00;100337.59;13107258;22;19995;-86
2022/09/14 22:48:35;;;;;;;6.22;1.38;;;;;;;11.46;100.00;100351.66;12756274;22;20017;-86
2022/09/14 22:53:35;;;;;;;6.90;1.73;;;;;;;10.75;100.00;100220.09;12852279;22;20040;-86
2022/09/14 22:58:36;;;;;;;4.25;1.55;;;;;;;10.21;100.00;100139.56;12852891;22;20001;-86
2022/09/14 23:03:37;;;;;;;5.95;1.80;;;;;;;11.42;100.00;100354.13;12853159;22;20331;-85
2022/09/14 23:08:38;;;;;;;6.57;1.52;;;;;;;11.36;100.00;100291.84;12852991;22;20013;-86
2022/09/14 23:13:39;;;;;;;3.63;1.63;;;;;;;11.32;100.00;100287.97;12853573;22;20064;-85
2022/09/14 23:18:39;;;;;;;2.05;1.50;;;;;;;11.56;100.00;100356.38;12852613;22;20016;-86